sensor_id;sensor_type;location;lat;lon;timestamp;pressure;altitude;pressure_sealevel;temperature;humidity
28027;BME280;15344;52.342;-1.290;2023-11-18T00:01:53;100396.28;;;10.82;100.00
28027;BME280;15344;52.342;-1.290;2023-11-18T00:04:19;100389.90;;;10.61;100.00
28027;BME280;15344;52.342;-1.290;2023-11-18T00:06:44;100392.18;;;10.68;100.00
28027;BME280;15344;52.342;-1.290;2023-11-18T00:09:10;100389.33;;;10.44;100.00
28027;BME280;15344;52.342;-1.290;2023-11-18T00:11:35;100392.90;;;10.39;100.00
28027;BME280;15344;52.342;-1.290;2023-11-18T00:14:00;100392.91;;;9.90;100.00
28027;BME280;15344;52.342;-1.290;2023-11-18T00:16:25;100382.92;;;10.31;100.00
28027;BME280;15344;52.342;-1.290;2023-11-18T00:18:51;100372.11;;;9.24;100.00
28027;BME280;15344;52.342;-1.290;2023-11-18T00:21:16;100367.25;;;9.62;100.00
28027;BME280;15344;52.342;-1.290;2023-11-18T00:23:42;100360.92;;;10.33;100.00
28027;BME280;15344;52.342;-1.290;2023-11-18T00:26:07;100360.61;;;10.24;100.00
28027;BME280;15344;52.342;-1.290;2023-11-18T00:28:33;100358.78;;;10.20;100.00
28027;BME280;15344;52.342;-1.290;2023-11-18T00:30:58;100353.72;;;9.43;100.00
28027;BME280;15344;52.342;-1.290;2023-11-18T00:33:24;100346.14;;;9.90;100.00
28027;BME280;15344;52.342;-1.290;2023-11-18T00:35:49;100331.53;;;9.78;100.00
28027;BME280;15344;52.342;-1.290;2023-11-18T00:38:14;100317.76;;;9.93;100.00
28027;BME280;15344;52.342;-1.290;2023-11-18T00:40:40;100309.78;;;9.82;100.00
28027;BME280;15344;52.342;-1.290;2023-11-18T00:43:05;100300.28;;;10.18;100.00
28027;BME280;15344;52.342;-1.290;2023-11-18T00:45:31;100288.08;;;9.39;100.00
28027;BME280;15344;52.342;-1.290;2023-11-18T00:47:56;100275.37;;;9.31;100.00
28027;BME280;15344;52.342;-1.290;2023-11-18T00:50:21;100267.04;;;8.41;100.00
28027;BME280;15344;52.342;-1.290;2023-11-18T00:52:47;100260.31;;;8.89;100.00
28027;BME280;15344;52.342;-1.290;2023-11-18T00:55:12;100262.79;;;9.00;100.00
28027;BME280;15344;52.342;-1.290;2023-11-18T00:57:38;100257.45;;;9.02;100.00
28027;BME280;15344;52.342;-1.290;2023-11-18T01:00:04;100248.35;;;9.28;100.00
28027;BME280;15344;52.342;-1.290;2023-11-18T01:02:28;100242.43;;;9.15;100.00
28027;BME280;15344;52.342;-1.290;2023-11-18T01:04:54;100239.73;;;8.67;100.00
28027;BME280;15344;52.342;-1.290;2023-11-18T01:07:19;100242.50;;;9.10;100.00
28027;BME280;15344;52.342;-1.290;2023-11-18T01:09:44;100231.79;;;9.39;100.00
28027;BME280;15344;52.342;-1.290;2023-11-18T01:12:10;100222.32;;;9.10;100.00
28027;BME280;15344;52.342;-1.290;2023-11-18T01:14:36;100211.98;;;9.38;100.00
28027;BME280;15344;52.342;-1.290;2023-11-18T01:17:01;100196.25;;;9.22;100.00
28027;BME280;15344;52.342;-1.290;2023-11-18T01:19:26;100190.21;;;8.89;100.00
28027;BME280;15344;52.342;-1.290;2023-11-18T01:21:52;100183.93;;;9.26;100.00
28027;BME280;15344;52.342;-1.290;2023-11-18T01:24:17;100169.81;;;8.54;100.00
28027;BME280;15344;52.342;-1.290;2023-11-18T01:26:42;100160.21;;;8.45;100.00
28027;BME280;15344;52.342;-1.290;2023-11-18T01:29:08;100156.64;;;8.76;100.00
28027;BME280;15344;52.342;-1.290;2023-11-18T01:31:33;100153.66;;;8.88;100.00
28027;BME280;15344;52.342;-1.290;2023-11-18T01:33:59;100152.94;;;7.97;100.00
28027;BME280;15344;52.342;-1.290;2023-11-18T01:36:24;100150.03;;;8.43;100.00
28027;BME280;15344;52.342;-1.290;2023-11-18T01:38:50;100147.21;;;9.13;100.00
28027;BME280;15344;52.342;-1.290;2023-11-18T01:41:15;100141.66;;;8.11;100.00
28027;BME280;15344;52.342;-1.290;2023-11-18T01:43:41;100143.98;;;7.94;100.00
28027;BME280;15344;52.342;-1.290;2023-11-18T01:46:09;100132.62;;;8.66;100.00
28027;BME280;15344;52.342;-1.290;2023-11-18T01:48:32;100132.48;;;8.78;100.00
28027;BME280;15344;52.342;-1.290;2023-11-18T01:50:57;100119.83;;;8.40;100.00
28027;BME280;15344;52.342;-1.290;2023-11-18T01:53:22;100113.55;;;8.26;100.00
28027;BME280;15344;52.342;-1.290;2023-11-18T01:55:48;100110.99;;;8.04;100.00
28027;BME280;15344;52.342;-1.290;2023-11-18T01:58:13;100116.28;;;8.33;100.00
28027;BME280;15344;52.342;-1.290;2023-11-18T02:00:41;100115.44;;;8.23;100.00
28027;BME280;15344;52.342;-1.290;2023-11-18T02:03:04;100109.46;;;8.73;100.00
28027;BME280;15344;52.342;-1.290;2023-11-18T02:05:30;100108.61;;;9.51;100.00
28027;BME280;15344;52.342;-1.290;2023-11-18T02:07:55;100106.84;;;8.94;100.00
28027;BME280;15344;52.342;-1.290;2023-11-18T02:10:21;100100.22;;;8.87;100.00
28027;BME280;15344;52.342;-1.290;2023-11-18T02:12:53;100091.70;;;9.14;100.00
28027;BME280;15344;52.342;-1.290;2023-11-18T02:15:12;100089.92;;;8.91;100.00
28027;BME280;15344;52.342;-1.290;2023-11-18T02:17:38;100091.52;;;8.76;100.00
28027;BME280;15344;52.342;-1.290;2023-11-18T02:20:03;100082.82;;;8.47;100.00
28027;BME280;15344;52.342;-1.290;2023-11-18T02:22:28;100073.14;;;8.60;100.00
28027;BME280;15344;52.342;-1.290;2023-11-18T02:24:53;100059.40;;;9.13;100.00
28027;BME280;15344;52.342;-1.290;2023-11-18T02:27:19;100061.32;;;9.23;100.00
28027;BME280;15344;52.342;-1.290;2023-11-18T02:29:45;100054.92;;;9.23;100.00
28027;BME280;15344;52.342;-1.290;2023-11-18T02:32:15;100052.86;;;8.69;100.00
28027;BME280;15344;52.342;-1.290;2023-11-18T02:34:39;100039.30;;;8.63;100.00
28027;BME280;15344;52.342;-1.290;2023-11-18T02:37:03;100043.24;;;8.44;100.00
28027;BME280;15344;52.342;-1.290;2023-11-18T02:39:29;100035.03;;;8.40;100.00
28027;BME280;15344;52.342;-1.290;2023-11-18T02:41:52;100027.73;;;9.04;100.00
28027;BME280;15344;52.342;-1.290;2023-11-18T02:44:17;100012.94;;;9.26;100.00
28027;BME280;15344;52.342;-1.290;2023-11-18T02:46:42;100007.40;;;9.10;100.00
28027;BME280;15344;52.342;-1.290;2023-11-18T02:49:07;99999.08;;;8.91;100.00
28027;BME280;15344;52.342;-1.290;2023-11-18T02:51:32;99999.42;;;8.12;100.00
28027;BME280;15344;52.342;-1.290;2023-11-18T02:53:58;99989.40;;;8.99;100.00
28027;BME280;15344;52.342;-1.290;2023-11-18T02:56:23;99996.84;;;9.04;100.00
28027;BME280;15344;52.342;-1.290;2023-11-18T02:58:49;99992.85;;;9.08;100.00
28027;BME280;15344;52.342;-1.290;2023-11-18T03:01:14;99988.13;;;8.89;100.00
28027;BME280;15344;52.342;-1.290;2023-11-18T03:03:40;99978.24;;;8.89;100.00
28027;BME280;15344;52.342;-1.290;2023-11-18T03:06:06;99964.79;;;8.27;100.00
28027;BME280;15344;52.342;-1.290;2023-11-18T03:08:30;99952.56;;;9.04;100.00
28027;BME280;15344;52.342;-1.290;2023-11-18T03:10:56;99939.82;;;8.53;100.00
28027;BME280;15344;52.342;-1.290;2023-11-18T03:13:22;99930.76;;;8.22;100.00
28027;BME280;15344;52.342;-1.290;2023-11-18T03:15:47;99916.43;;;8.60;100.00
28027;BME280;15344;52.342;-1.290;2023-11-18T03:18:12;99903.20;;;8.67;100.00
28027;BME280;15344;52.342;-1.290;2023-11-18T03:20:38;99889.06;;;9.19;100.00
28027;BME280;15344;52.342;-1.290;2023-11-18T03:23:03;99891.10;;;8.88;100.00
28027;BME280;15344;52.342;-1.290;2023-11-18T03:25:29;99889.49;;;8.43;100.00
28027;BME280;15344;52.342;-1.290;2023-11-18T03:27:54;99878.90;;;8.27;100.00
28027;BME280;15344;52.342;-1.290;2023-11-18T03:30:19;99866.37;;;9.24;100.00
28027;BME280;15344;52.342;-1.290;2023-11-18T03:32:45;99849.00;;;8.93;100.00
28027;BME280;15344;52.342;-1.290;2023-11-18T03:35:10;99841.13;;;9.09;100.00
28027;BME280;15344;52.342;-1.290;2023-11-18T03:37:36;99836.86;;;9.04;100.00
28027;BME280;15344;52.342;-1.290;2023-11-18T03:40:01;99838.36;;;9.22;100.00
28027;BME280;15344;52.342;-1.290;2023-11-18T03:42:26;99838.87;;;9.09;100.00
28027;BME280;15344;52.342;-1.290;2023-11-18T03:44:52;99829.24;;;9.78;100.00
28027;BME280;15344;52.342;-1.290;2023-11-18T03:47:17;99827.72;;;9.74;100.00
28027;BME280;15344;52.342;-1.290;2023-11-18T03:49:43;99825.09;;;10.38;100.00
28027;BME280;15344;52.342;-1.290;2023-11-18T03:52:09;99819.13;;;10.13;100.00
28027;BME280;15344;52.342;-1.290;2023-11-18T03:54:34;99809.05;;;9.51;100.00
28027;BME280;15344;52.342;-1.290;2023-11-18T03:56:59;99786.83;;;9.56;100.00
28027;BME280;15344;52.342;-1.290;2023-11-18T03:59:24;99777.83;;;9.54;100.00
28027;BME280;15344;52.342;-1.290;2023-11-18T04:01:50;99780.76;;;9.41;100.00
28027;BME280;15344;52.342;-1.290;2023-11-18T04:04:15;99789.55;;;10.19;100.00
28027;BME280;15344;52.342;-1.290;2023-11-18T04:06:41;99776.39;;;9.54;100.00
28027;BME280;15344;52.342;-1.290;2023-11-18T04:09:06;99761.97;;;9.86;100.00
28027;BME280;15344;52.342;-1.290;2023-11-18T04:11:31;99750.38;;;9.80;100.00
28027;BME280;15344;52.342;-1.290;2023-11-18T04:13:57;99765.83;;;9.43;100.00
28027;BME280;15344;52.342;-1.290;2023-11-18T04:16:22;99751.75;;;9.93;100.00
28027;BME280;15344;52.342;-1.290;2023-11-18T04:18:48;99745.12;;;9.84;100.00
28027;BME280;15344;52.342;-1.290;2023-11-18T04:21:14;99742.00;;;9.47;100.00
28027;BME280;15344;52.342;-1.290;2023-11-18T04:23:41;99744.09;;;9.87;100.00
28027;BME280;15344;52.342;-1.290;2023-11-18T04:26:05;99736.26;;;9.54;100.00
28027;BME280;15344;52.342;-1.290;2023-11-18T04:28:29;99731.30;;;10.32;100.00
28027;BME280;15344;52.342;-1.290;2023-11-18T04:30:55;99729.13;;;10.33;100.00
28027;BME280;15344;52.342;-1.290;2023-11-18T04:33:20;99732.87;;;10.23;100.00
28027;BME280;15344;52.342;-1.290;2023-11-18T04:35:46;99724.54;;;9.95;100.00
28027;BME280;15344;52.342;-1.290;2023-11-18T04:38:11;99716.67;;;9.69;100.00
28027;BME280;15344;52.342;-1.290;2023-11-18T04:40:36;99715.89;;;10.45;100.00
28027;BME280;15344;52.342;-1.290;2023-11-18T04:43:02;99708.74;;;10.32;100.00
28027;BME280;15344;52.342;-1.290;2023-11-18T04:45:27;99693.53;;;10.35;100.00
28027;BME280;15344;52.342;-1.290;2023-11-18T04:47:53;99681.17;;;10.22;100.00
28027;BME280;15344;52.342;-1.290;2023-11-18T04:50:18;99678.60;;;10.68;100.00
28027;BME280;15344;52.342;-1.290;2023-11-18T04:52:43;99681.05;;;10.43;100.00
28027;BME280;15344;52.342;-1.290;2023-11-18T04:55:09;99684.79;;;10.39;100.00
28027;BME280;15344;52.342;-1.290;2023-11-18T04:57:34;99671.73;;;10.86;100.00
28027;BME280;15344;52.342;-1.290;2023-11-18T05:00:00;99672.37;;;10.28;100.00
28027;BME280;15344;52.342;-1.290;2023-11-18T05:02:25;99669.85;;;10.38;100.00
28027;BME280;15344;52.342;-1.290;2023-11-18T05:04:50;99663.54;;;10.35;100.00
28027;BME280;15344;52.342;-1.290;2023-11-18T05:07:16;99667.63;;;10.50;100.00
28027;BME280;15344;52.342;-1.290;2023-11-18T05:09:41;99657.42;;;10.25;100.00
28027;BME280;15344;52.342;-1.290;2023-11-18T05:12:07;99650.83;;;10.83;100.00
28027;BME280;15344;52.342;-1.290;2023-11-18T05:14:32;99648.96;;;9.48;100.00
28027;BME280;15344;52.342;-1.290;2023-11-18T05:16:57;99640.26;;;11.24;100.00
28027;BME280;15344;52.342;-1.290;2023-11-18T05:19:22;99643.32;;;10.85;100.00
28027;BME280;15344;52.342;-1.290;2023-11-18T05:21:48;99631.03;;;10.55;100.00
28027;BME280;15344;52.342;-1.290;2023-11-18T05:24:13;99627.36;;;10.70;100.00
28027;BME280;15344;52.342;-1.290;2023-11-18T05:26:39;99621.68;;;10.24;100.00
28027;BME280;15344;52.342;-1.290;2023-11-18T05:29:04;99613.34;;;9.95;100.00
28027;BME280;15344;52.342;-1.290;2023-11-18T05:31:29;99600.71;;;10.03;100.00
28027;BME280;15344;52.342;-1.290;2023-11-18T05:33:54;99588.31;;;10.60;100.00
28027;BME280;15344;52.342;-1.290;2023-11-18T05:36:20;99576.23;;;10.69;100.00
28027;BME280;15344;52.342;-1.290;2023-11-18T05:38:45;99577.15;;;11.15;100.00
28027;BME280;15344;52.342;-1.290;2023-11-18T05:41:11;99566.85;;;10.92;100.00
28027;BME280;15344;52.342;-1.290;2023-11-18T05:43:36;99568.66;;;11.18;100.00
28027;BME280;15344;52.342;-1.290;2023-11-18T05:46:02;99560.33;;;11.11;100.00
28027;BME280;15344;52.342;-1.290;2023-11-18T05:48:27;99557.62;;;11.34;100.00
28027;BME280;15344;52.342;-1.290;2023-11-18T05:50:52;99546.23;;;11.02;100.00
28027;BME280;15344;52.342;-1.290;2023-11-18T05:53:17;99541.18;;;10.97;100.00
28027;BME280;15344;52.342;-1.290;2023-11-18T05:55:43;99529.52;;;11.02;100.00
28027;BME280;15344;52.342;-1.290;2023-11-18T05:58:08;99523.79;;;11.62;100.00
28027;BME280;15344;52.342;-1.290;2023-11-18T06:00:34;99527.31;;;10.88;100.00
28027;BME280;15344;52.342;-1.290;2023-11-18T06:02:59;99528.47;;;11.44;100.00
28027;BME280;15344;52.342;-1.290;2023-11-18T06:05:24;99539.46;;;11.23;100.00
28027;BME280;15344;52.342;-1.290;2023-11-18T06:07:50;99533.60;;;11.11;100.00
28027;BME280;15344;52.342;-1.290;2023-11-18T06:10:15;99535.34;;;11.71;100.00
28027;BME280;15344;52.342;-1.290;2023-11-18T06:12:41;99529.61;;;11.06;100.00
28027;BME280;15344;52.342;-1.290;2023-11-18T06:15:06;99527.63;;;10.49;100.00
28027;BME280;15344;52.342;-1.290;2023-11-18T06:17:31;99520.99;;;10.91;100.00
28027;BME280;15344;52.342;-1.290;2023-11-18T06:19:57;99511.68;;;11.34;100.00
28027;BME280;15344;52.342;-1.290;2023-11-18T06:22:22;99508.22;;;11.30;100.00
28027;BME280;15344;52.342;-1.290;2023-11-18T06:24:47;99503.22;;;11.30;100.00
28027;BME280;15344;52.342;-1.290;2023-11-18T06:27:13;99493.52;;;11.22;100.00
28027;BME280;15344;52.342;-1.290;2023-11-18T06:29:38;99476.77;;;11.51;100.00
28027;BME280;15344;52.342;-1.290;2023-11-18T06:32:03;99482.77;;;10.84;100.00
28027;BME280;15344;52.342;-1.290;2023-11-18T06:34:29;99476.06;;;11.63;100.00
28027;BME280;15344;52.342;-1.290;2023-11-18T06:36:54;99476.93;;;11.68;100.00
28027;BME280;15344;52.342;-1.290;2023-11-18T06:39:19;99478.06;;;11.94;100.00
28027;BME280;15344;52.342;-1.290;2023-11-18T06:41:45;99479.02;;;11.46;100.00
28027;BME280;15344;52.342;-1.290;2023-11-18T06:44:10;99478.97;;;11.48;100.00
28027;BME280;15344;52.342;-1.290;2023-11-18T06:46:36;99476.20;;;11.88;100.00
28027;BME280;15344;52.342;-1.290;2023-11-18T06:49:02;99478.62;;;11.58;100.00
28027;BME280;15344;52.342;-1.290;2023-11-18T06:51:27;99468.37;;;11.99;100.00
28027;BME280;15344;52.342;-1.290;2023-11-18T06:53:52;99475.55;;;12.11;100.00
28027;BME280;15344;52.342;-1.290;2023-11-18T06:56:17;99478.45;;;11.82;100.00
28027;BME280;15344;52.342;-1.290;2023-11-18T06:58:42;99472.48;;;12.15;100.00
28027;BME280;15344;52.342;-1.290;2023-11-18T07:01:07;99468.17;;;12.58;100.00
28027;BME280;15344;52.342;-1.290;2023-11-18T07:03:33;99460.37;;;11.65;100.00
28027;BME280;15344;52.342;-1.290;2023-11-18T07:05:58;99442.28;;;12.14;100.00
28027;BME280;15344;52.342;-1.290;2023-11-18T07:08:23;99471.79;;;12.35;100.00
28027;BME280;15344;52.342;-1.290;2023-11-18T07:10:49;99459.50;;;12.15;100.00
28027;BME280;15344;52.342;-1.290;2023-11-18T07:13:14;99460.11;;;11.97;100.00
28027;BME280;15344;52.342;-1.290;2023-11-18T07:15:40;99450.70;;;12.49;100.00
28027;BME280;15344;52.342;-1.290;2023-11-18T07:18:05;99434.46;;;12.79;100.00
28027;BME280;15344;52.342;-1.290;2023-11-18T07:20:30;99451.06;;;12.20;100.00
28027;BME280;15344;52.342;-1.290;2023-11-18T07:22:55;99472.77;;;11.93;100.00
28027;BME280;15344;52.342;-1.290;2023-11-18T07:25:20;99459.55;;;12.47;100.00
28027;BME280;15344;52.342;-1.290;2023-11-18T07:27:46;99440.98;;;12.24;100.00
28027;BME280;15344;52.342;-1.290;2023-11-18T07:30:12;99443.39;;;12.47;100.00
28027;BME280;15344;52.342;-1.290;2023-11-18T07:32:37;99443.32;;;11.96;100.00
28027;BME280;15344;52.342;-1.290;2023-11-18T07:35:02;99446.42;;;12.32;100.00
28027;BME280;15344;52.342;-1.290;2023-11-18T07:37:27;99443.06;;;13.02;100.00
28027;BME280;15344;52.342;-1.290;2023-11-18T07:39:53;99447.67;;;11.96;100.00
28027;BME280;15344;52.342;-1.290;2023-11-18T07:42:18;99444.30;;;12.59;100.00
28027;BME280;15344;52.342;-1.290;2023-11-18T07:44:43;99449.92;;;12.64;100.00
28027;BME280;15344;52.342;-1.290;2023-11-18T07:47:09;99440.86;;;12.08;100.00
28027;BME280;15344;52.342;-1.290;2023-11-18T07:49:34;99448.39;;;12.51;100.00
28027;BME280;15344;52.342;-1.290;2023-11-18T07:51:59;99439.50;;;13.25;100.00
28027;BME280;15344;52.342;-1.290;2023-11-18T07:54:25;99433.41;;;13.31;100.00
28027;BME280;15344;52.342;-1.290;2023-11-18T07:56:50;99423.22;;;12.85;100.00
28027;BME280;15344;52.342;-1.290;2023-11-18T07:59:16;99421.27;;;12.96;100.00
28027;BME280;15344;52.342;-1.290;2023-11-18T08:01:41;99416.80;;;12.91;100.00
28027;BME280;15344;52.342;-1.290;2023-11-18T08:04:06;99401.45;;;12.92;100.00
28027;BME280;15344;52.342;-1.290;2023-11-18T08:06:31;99402.66;;;12.65;100.00
28027;BME280;15344;52.342;-1.290;2023-11-18T08:08:56;99402.39;;;12.56;100.00
28027;BME280;15344;52.342;-1.290;2023-11-18T08:11:21;99390.77;;;12.78;100.00
28027;BME280;15344;52.342;-1.290;2023-11-18T08:13:47;99383.96;;;12.72;100.00
28027;BME280;15344;52.342;-1.290;2023-11-18T08:16:12;99383.17;;;12.70;100.00
28027;BME280;15344;52.342;-1.290;2023-11-18T08:18:37;99398.54;;;12.87;100.00
28027;BME280;15344;52.342;-1.290;2023-11-18T08:21:03;99406.38;;;12.44;100.00
28027;BME280;15344;52.342;-1.290;2023-11-18T08:23:28;99399.60;;;12.02;100.00
28027;BME280;15344;52.342;-1.290;2023-11-18T08:25:54;99395.27;;;12.47;100.00
28027;BME280;15344;52.342;-1.290;2023-11-18T08:28:18;99389.49;;;12.98;100.00
28027;BME280;15344;52.342;-1.290;2023-11-18T08:30:44;99405.14;;;13.05;100.00
28027;BME280;15344;52.342;-1.290;2023-11-18T08:33:09;99405.98;;;13.51;100.00
28027;BME280;15344;52.342;-1.290;2023-11-18T08:35:34;99403.44;;;13.37;100.00
28027;BME280;15344;52.342;-1.290;2023-11-18T08:38:00;99396.24;;;13.63;100.00
28027;BME280;15344;52.342;-1.290;2023-11-18T08:40:25;99374.39;;;13.79;100.00
28027;BME280;15344;52.342;-1.290;2023-11-18T08:42:52;99390.69;;;13.01;100.00
28027;BME280;15344;52.342;-1.290;2023-11-18T08:45:17;99400.19;;;13.40;100.00
28027;BME280;15344;52.342;-1.290;2023-11-18T08:47:43;99390.13;;;13.46;100.00
28027;BME280;15344;52.342;-1.290;2023-11-18T08:50:08;99392.15;;;13.28;100.00
28027;BME280;15344;52.342;-1.290;2023-11-18T08:52:31;99384.86;;;12.94;100.00
28027;BME280;15344;52.342;-1.290;2023-11-18T08:54:57;99377.99;;;12.83;100.00
28027;BME280;15344;52.342;-1.290;2023-11-18T08:57:22;99394.23;;;13.44;100.00
28027;BME280;15344;52.342;-1.290;2023-11-18T08:59:47;99394.23;;;13.45;100.00
28027;BME280;15344;52.342;-1.290;2023-11-18T09:02:12;99382.33;;;13.88;100.00
28027;BME280;15344;52.342;-1.290;2023-11-18T09:04:38;99362.47;;;13.41;100.00
28027;BME280;15344;52.342;-1.290;2023-11-18T09:07:03;99356.96;;;13.32;100.00
28027;BME280;15344;52.342;-1.290;2023-11-18T09:09:28;99347.12;;;14.16;100.00
28027;BME280;15344;52.342;-1.290;2023-11-18T09:11:55;99343.97;;;13.56;100.00
28027;BME280;15344;52.342;-1.290;2023-11-18T09:14:19;99338.77;;;13.99;100.00
28027;BME280;15344;52.342;-1.290;2023-11-18T09:16:45;99338.85;;;13.89;100.00
28027;BME280;15344;52.342;-1.290;2023-11-18T09:19:10;99352.28;;;14.11;100.00
28027;BME280;15344;52.342;-1.290;2023-11-18T09:21:35;99353.14;;;13.56;100.00
28027;BME280;15344;52.342;-1.290;2023-11-18T09:24:01;99351.00;;;13.65;100.00
28027;BME280;15344;52.342;-1.290;2023-11-18T09:26:25;99355.05;;;13.77;100.00
28027;BME280;15344;52.342;-1.290;2023-11-18T09:28:51;99353.38;;;13.91;100.00
28027;BME280;15344;52.342;-1.290;2023-11-18T09:31:16;99360.63;;;14.26;100.00
28027;BME280;15344;52.342;-1.290;2023-11-18T09:33:41;99359.10;;;13.87;100.00
28027;BME280;15344;52.342;-1.290;2023-11-18T09:36:08;99363.05;;;13.69;100.00
28027;BME280;15344;52.342;-1.290;2023-11-18T09:38:33;99369.30;;;13.51;100.00
28027;BME280;15344;52.342;-1.290;2023-11-18T09:40:58;99376.82;;;13.64;100.00
28027;BME280;15344;52.342;-1.290;2023-11-18T09:43:23;99383.00;;;13.89;100.00
28027;BME280;15344;52.342;-1.290;2023-11-18T09:45:49;99385.31;;;14.53;100.00
28027;BME280;15344;52.342;-1.290;2023-11-18T09:48:14;99370.93;;;14.25;100.00
28027;BME280;15344;52.342;-1.290;2023-11-18T09:50:38;99358.71;;;14.45;100.00
28027;BME280;15344;52.342;-1.290;2023-11-18T09:53:07;99360.26;;;14.66;100.00
28027;BME280;15344;52.342;-1.290;2023-11-18T09:55:35;99362.45;;;14.93;100.00
28027;BME280;15344;52.342;-1.290;2023-11-18T09:58:01;99366.38;;;14.37;100.00
28027;BME280;15344;52.342;-1.290;2023-11-18T10:00:19;99357.08;;;14.81;100.00
28027;BME280;15344;52.342;-1.290;2023-11-18T10:02:44;99376.77;;;14.75;100.00
28027;BME280;15344;52.342;-1.290;2023-11-18T10:05:11;99367.50;;;14.38;100.00
28027;BME280;15344;52.342;-1.290;2023-11-18T10:07:34;99341.80;;;14.53;100.00
28027;BME280;15344;52.342;-1.290;2023-11-18T10:10:00;99342.35;;;15.44;100.00
28027;BME280;15344;52.342;-1.290;2023-11-18T10:12:25;99340.56;;;15.48;100.00
28027;BME280;15344;52.342;-1.290;2023-11-18T10:14:50;99340.01;;;14.99;100.00
28027;BME280;15344;52.342;-1.290;2023-11-18T10:17:17;99354.00;;;15.73;100.00
28027;BME280;15344;52.342;-1.290;2023-11-18T10:22:16;99337.30;;;14.48;100.00
28027;BME280;15344;52.342;-1.290;2023-11-18T10:24:43;99327.33;;;15.29;100.00
28027;BME280;15344;52.342;-1.290;2023-11-18T10:26:57;99339.79;;;15.51;100.00
28027;BME280;15344;52.342;-1.290;2023-11-18T10:29:24;99349.23;;;15.61;100.00
28027;BME280;15344;52.342;-1.290;2023-11-18T10:31:47;99358.20;;;15.39;100.00
28027;BME280;15344;52.342;-1.290;2023-11-18T10:34:13;99351.53;;;14.98;100.00
28027;BME280;15344;52.342;-1.290;2023-11-18T10:36:38;99358.49;;;14.93;100.00
28027;BME280;15344;52.342;-1.290;2023-11-18T10:39:03;99370.22;;;14.50;100.00
28027;BME280;15344;52.342;-1.290;2023-11-18T10:41:29;99354.70;;;14.67;100.00
28027;BME280;15344;52.342;-1.290;2023-11-18T10:44:05;99347.58;;;15.06;100.00
28027;BME280;15344;52.342;-1.290;2023-11-18T10:46:19;99337.50;;;14.21;100.00
28027;BME280;15344;52.342;-1.290;2023-11-18T10:48:45;99333.62;;;15.04;100.00
28027;BME280;15344;52.342;-1.290;2023-11-18T10:51:10;99333.02;;;14.64;100.00
28027;BME280;15344;52.342;-1.290;2023-11-18T10:53:35;99339.71;;;15.19;100.00
28027;BME280;15344;52.342;-1.290;2023-11-18T10:56:00;99338.42;;;14.79;100.00
28027;BME280;15344;52.342;-1.290;2023-11-18T10:58:35;99331.87;;;15.63;100.00
28027;BME280;15344;52.342;-1.290;2023-11-18T11:00:52;99338.71;;;15.84;100.00
28027;BME280;15344;52.342;-1.290;2023-11-18T11:03:16;99338.01;;;16.06;100.00
28027;BME280;15344;52.342;-1.290;2023-11-18T11:05:41;99338.25;;;15.99;100.00
28027;BME280;15344;52.342;-1.290;2023-11-18T11:08:07;99330.32;;;17.11;100.00
28027;BME280;15344;52.342;-1.290;2023-11-18T11:10:33;99335.47;;;16.09;100.00
28027;BME280;15344;52.342;-1.290;2023-11-18T11:13:00;99327.72;;;16.14;100.00
28027;BME280;15344;52.342;-1.290;2023-11-18T11:15:25;99325.79;;;16.55;100.00
28027;BME280;15344;52.342;-1.290;2023-11-18T11:17:51;99326.52;;;16.47;100.00
28027;BME280;15344;52.342;-1.290;2023-11-18T11:20:14;99332.16;;;15.63;100.00
28027;BME280;15344;52.342;-1.290;2023-11-18T11:22:42;99335.82;;;16.57;100.00
28027;BME280;15344;52.342;-1.290;2023-11-18T11:25:09;99332.60;;;16.28;100.00
28027;BME280;15344;52.342;-1.290;2023-11-18T11:27:32;99335.99;;;15.82;100.00
28027;BME280;15344;52.342;-1.290;2023-11-18T11:29:59;99331.90;;;16.08;100.00
28027;BME280;15344;52.342;-1.290;2023-11-18T11:32:25;99344.68;;;16.26;100.00
28027;BME280;15344;52.342;-1.290;2023-11-18T11:34:50;99342.45;;;15.97;100.00
28027;BME280;15344;52.342;-1.290;2023-11-18T11:37:11;99336.82;;;16.14;100.00
28027;BME280;15344;52.342;-1.290;2023-11-18T11:39:35;99336.25;;;16.26;100.00
28027;BME280;15344;52.342;-1.290;2023-11-18T11:41:59;99332.63;;;16.03;100.00
28027;BME280;15344;52.342;-1.290;2023-11-18T11:44:24;99324.70;;;15.82;100.00
28027;BME280;15344;52.342;-1.290;2023-11-18T11:46:50;99330.11;;;16.44;100.00
28027;BME280;15344;52.342;-1.290;2023-11-18T11:49:15;99327.00;;;16.45;100.00
28027;BME280;15344;52.342;-1.290;2023-11-18T11:51:46;99325.58;;;15.97;100.00
28027;BME280;15344;52.342;-1.290;2023-11-18T11:54:09;99322.93;;;15.91;100.00
28027;BME280;15344;52.342;-1.290;2023-11-18T11:56:38;99310.32;;;15.60;100.00
28027;BME280;15344;52.342;-1.290;2023-11-18T11:58:57;99308.20;;;15.37;100.00
28027;BME280;15344;52.342;-1.290;2023-11-18T12:01:25;99319.99;;;15.87;100.00
28027;BME280;15344;52.342;-1.290;2023-11-18T12:03:46;99315.41;;;16.05;100.00
28027;BME280;15344;52.342;-1.290;2023-11-18T12:06:11;99313.38;;;15.79;100.00
28027;BME280;15344;52.342;-1.290;2023-11-18T12:08:36;99316.95;;;15.39;100.00
28027;BME280;15344;52.342;-1.290;2023-11-18T12:11:01;99317.57;;;15.80;100.00
28027;BME280;15344;52.342;-1.290;2023-11-18T12:13:26;99313.46;;;15.98;100.00
28027;BME280;15344;52.342;-1.290;2023-11-18T12:15:53;99311.31;;;16.40;100.00
28027;BME280;15344;52.342;-1.290;2023-11-18T12:18:17;99299.38;;;16.21;100.00
28027;BME280;15344;52.342;-1.290;2023-11-18T12:20:43;99305.04;;;16.21;100.00
28027;BME280;15344;52.342;-1.290;2023-11-18T12:23:08;99308.79;;;15.96;100.00
28027;BME280;15344;52.342;-1.290;2023-11-18T12:25:32;99299.14;;;15.54;100.00
28027;BME280;15344;52.342;-1.290;2023-11-18T12:27:58;99315.18;;;16.14;100.00
28027;BME280;15344;52.342;-1.290;2023-11-18T12:35:14;99300.50;;;15.74;100.00
28027;BME280;15344;52.342;-1.290;2023-11-18T12:37:51;99302.38;;;16.12;100.00